Terminal Aerodrome Forecast
Issued by NWS

Home | Current Version | Previous Version | Text Only | Print | Product List | Glossary On
Versions: 1 2 3 4 5 6 7 8 9 10 11 12 13 14 15 16 17 18 19 20
000
FTUS41 KBOX 221720
TAFACK
TAF
KACK 221720Z 2218/2318 03022G35KT 2SM -SHRA OVC003
     FM230600 03020G30KT 2SM BR VCSH OVC003
     FM231500 02020G30KT P6SM OVC005=

USA.gov is the U.S. government's official web portal to all federal, state and local government web resources and services.